sensor_id;sensor_type;location;lat;lon;timestamp;P1;durP1;ratioP1;P2;durP2;ratioP2
31676;SDS011;18385;51.572;6.578;2024-03-22T00:01:41;30.20;;;11.98;;
31676;SDS011;18385;51.572;6.578;2024-03-22T00:04:08;25.70;;;11.60;;
31676;SDS011;18385;51.572;6.578;2024-03-22T00:06:33;25.42;;;11.63;;
31676;SDS011;18385;51.572;6.578;2024-03-22T00:08:59;27.85;;;11.60;;
31676;SDS011;18385;51.572;6.578;2024-03-22T00:11:24;28.27;;;11.18;;
31676;SDS011;18385;51.572;6.578;2024-03-22T00:13:50;33.30;;;12.82;;
31676;SDS011;18385;51.572;6.578;2024-03-22T00:16:16;31.58;;;12.15;;
31676;SDS011;18385;51.572;6.578;2024-03-22T00:18:41;30.33;;;11.85;;
31676;SDS011;18385;51.572;6.578;2024-03-22T00:21:07;31.80;;;12.65;;
31676;SDS011;18385;51.572;6.578;2024-03-22T00:23:33;29.50;;;12.32;;
31676;SDS011;18385;51.572;6.578;2024-03-22T00:25:59;28.60;;;12.60;;
31676;SDS011;18385;51.572;6.578;2024-03-22T00:28:25;26.90;;;10.65;;
31676;SDS011;18385;51.572;6.578;2024-03-22T00:30:50;38.42;;;12.65;;
31676;SDS011;18385;51.572;6.578;2024-03-22T00:33:16;27.92;;;11.57;;
31676;SDS011;18385;51.572;6.578;2024-03-22T00:35:41;34.58;;;12.35;;
31676;SDS011;18385;51.572;6.578;2024-03-22T00:38:07;30.20;;;13.35;;
31676;SDS011;18385;51.572;6.578;2024-03-22T00:40:33;31.13;;;11.75;;
31676;SDS011;18385;51.572;6.578;2024-03-22T00:42:58;33.67;;;13.13;;
31676;SDS011;18385;51.572;6.578;2024-03-22T00:45:24;32.85;;;12.65;;
31676;SDS011;18385;51.572;6.578;2024-03-22T00:47:50;29.75;;;13.02;;
31676;SDS011;18385;51.572;6.578;2024-03-22T00:50:15;32.75;;;11.68;;
31676;SDS011;18385;51.572;6.578;2024-03-22T00:52:41;30.67;;;12.93;;
31676;SDS011;18385;51.572;6.578;2024-03-22T00:55:07;27.25;;;12.50;;
31676;SDS011;18385;51.572;6.578;2024-03-22T00:57:33;29.60;;;11.82;;
31676;SDS011;18385;51.572;6.578;2024-03-22T00:59:59;30.98;;;13.02;;
31676;SDS011;18385;51.572;6.578;2024-03-22T01:02:25;29.70;;;11.45;;
31676;SDS011;18385;51.572;6.578;2024-03-22T01:04:50;27.98;;;13.05;;
31676;SDS011;18385;51.572;6.578;2024-03-22T01:07:16;28.27;;;11.75;;
31676;SDS011;18385;51.572;6.578;2024-03-22T01:09:42;29.10;;;11.68;;
31676;SDS011;18385;51.572;6.578;2024-03-22T01:12:09;28.73;;;13.07;;
31676;SDS011;18385;51.572;6.578;2024-03-22T01:14:35;30.95;;;12.65;;
31676;SDS011;18385;51.572;6.578;2024-03-22T01:17:01;30.52;;;11.68;;
31676;SDS011;18385;51.572;6.578;2024-03-22T01:19:27;31.45;;;13.10;;
31676;SDS011;18385;51.572;6.578;2024-03-22T01:21:53;29.58;;;12.30;;
31676;SDS011;18385;51.572;6.578;2024-03-22T01:24:18;31.08;;;13.48;;
31676;SDS011;18385;51.572;6.578;2024-03-22T01:26:44;27.52;;;12.10;;
31676;SDS011;18385;51.572;6.578;2024-03-22T01:29:10;27.30;;;13.18;;
31676;SDS011;18385;51.572;6.578;2024-03-22T01:31:36;31.02;;;13.18;;
31676;SDS011;18385;51.572;6.578;2024-03-22T01:34:01;28.88;;;12.57;;
31676;SDS011;18385;51.572;6.578;2024-03-22T01:36:27;32.17;;;13.48;;
31676;SDS011;18385;51.572;6.578;2024-03-22T01:38:53;35.67;;;14.43;;
31676;SDS011;18385;51.572;6.578;2024-03-22T01:41:18;30.63;;;12.70;;
31676;SDS011;18385;51.572;6.578;2024-03-22T01:43:44;33.15;;;15.00;;
31676;SDS011;18385;51.572;6.578;2024-03-22T01:46:10;31.73;;;12.98;;
31676;SDS011;18385;51.572;6.578;2024-03-22T01:48:35;31.77;;;13.73;;
31676;SDS011;18385;51.572;6.578;2024-03-22T01:51:02;32.80;;;14.02;;
31676;SDS011;18385;51.572;6.578;2024-03-22T01:53:28;34.28;;;14.45;;
31676;SDS011;18385;51.572;6.578;2024-03-22T01:55:54;30.75;;;13.48;;
31676;SDS011;18385;51.572;6.578;2024-03-22T01:58:20;33.35;;;13.60;;
31676;SDS011;18385;51.572;6.578;2024-03-22T02:00:47;28.77;;;12.82;;
31676;SDS011;18385;51.572;6.578;2024-03-22T02:03:12;32.00;;;14.07;;
31676;SDS011;18385;51.572;6.578;2024-03-22T02:05:38;33.85;;;13.13;;
31676;SDS011;18385;51.572;6.578;2024-03-22T02:08:04;36.67;;;14.75;;
31676;SDS011;18385;51.572;6.578;2024-03-22T02:10:30;32.25;;;14.68;;
31676;SDS011;18385;51.572;6.578;2024-03-22T02:12:56;31.92;;;13.65;;
31676;SDS011;18385;51.572;6.578;2024-03-22T02:15:22;37.53;;;15.20;;
31676;SDS011;18385;51.572;6.578;2024-03-22T02:17:47;31.58;;;13.43;;
31676;SDS011;18385;51.572;6.578;2024-03-22T02:20:13;36.20;;;14.40;;
31676;SDS011;18385;51.572;6.578;2024-03-22T02:22:38;34.58;;;13.88;;
31676;SDS011;18385;51.572;6.578;2024-03-22T02:25:04;31.67;;;13.98;;
31676;SDS011;18385;51.572;6.578;2024-03-22T02:27:30;32.47;;;13.95;;
31676;SDS011;18385;51.572;6.578;2024-03-22T02:29:56;31.48;;;13.50;;
31676;SDS011;18385;51.572;6.578;2024-03-22T02:32:21;32.00;;;14.70;;
31676;SDS011;18385;51.572;6.578;2024-03-22T02:34:47;28.92;;;13.07;;
31676;SDS011;18385;51.572;6.578;2024-03-22T02:37:13;35.30;;;15.95;;
31676;SDS011;18385;51.572;6.578;2024-03-22T02:39:38;36.70;;;14.00;;
31676;SDS011;18385;51.572;6.578;2024-03-22T02:42:04;35.00;;;15.10;;
31676;SDS011;18385;51.572;6.578;2024-03-22T02:44:30;35.33;;;14.23;;
31676;SDS011;18385;51.572;6.578;2024-03-22T02:46:55;35.80;;;14.75;;
31676;SDS011;18385;51.572;6.578;2024-03-22T02:49:21;36.60;;;14.90;;
31676;SDS011;18385;51.572;6.578;2024-03-22T02:51:47;35.85;;;15.50;;
31676;SDS011;18385;51.572;6.578;2024-03-22T02:54:12;39.45;;;14.52;;
31676;SDS011;18385;51.572;6.578;2024-03-22T02:56:39;31.17;;;14.05;;
31676;SDS011;18385;51.572;6.578;2024-03-22T02:59:04;36.22;;;14.35;;
31676;SDS011;18385;51.572;6.578;2024-03-22T03:01:30;37.80;;;15.48;;
31676;SDS011;18385;51.572;6.578;2024-03-22T03:03:55;32.17;;;14.43;;
31676;SDS011;18385;51.572;6.578;2024-03-22T03:06:21;34.92;;;14.70;;
31676;SDS011;18385;51.572;6.578;2024-03-22T03:08:47;39.45;;;13.90;;
31676;SDS011;18385;51.572;6.578;2024-03-22T03:11:14;31.63;;;14.23;;
31676;SDS011;18385;51.572;6.578;2024-03-22T03:13:39;37.92;;;14.85;;
31676;SDS011;18385;51.572;6.578;2024-03-22T03:16:05;33.47;;;13.45;;
31676;SDS011;18385;51.572;6.578;2024-03-22T03:18:31;31.65;;;13.32;;
31676;SDS011;18385;51.572;6.578;2024-03-22T03:20:57;36.40;;;14.85;;
31676;SDS011;18385;51.572;6.578;2024-03-22T03:23:22;36.55;;;14.77;;
31676;SDS011;18385;51.572;6.578;2024-03-22T03:25:48;36.75;;;14.98;;
31676;SDS011;18385;51.572;6.578;2024-03-22T03:28:14;32.80;;;14.38;;
31676;SDS011;18385;51.572;6.578;2024-03-22T03:30:39;36.00;;;15.02;;
31676;SDS011;18385;51.572;6.578;2024-03-22T03:33:05;32.00;;;15.07;;
31676;SDS011;18385;51.572;6.578;2024-03-22T03:35:31;32.25;;;14.23;;
31676;SDS011;18385;51.572;6.578;2024-03-22T03:37:56;36.08;;;15.13;;
31676;SDS011;18385;51.572;6.578;2024-03-22T03:40:22;31.67;;;14.30;;
31676;SDS011;18385;51.572;6.578;2024-03-22T03:42:53;36.65;;;14.85;;
31676;SDS011;18385;51.572;6.578;2024-03-22T03:45:18;31.60;;;13.23;;
31676;SDS011;18385;51.572;6.578;2024-03-22T03:47:44;29.58;;;13.98;;
31676;SDS011;18385;51.572;6.578;2024-03-22T03:50:10;29.90;;;14.52;;
31676;SDS011;18385;51.572;6.578;2024-03-22T03:52:37;31.85;;;13.40;;
31676;SDS011;18385;51.572;6.578;2024-03-22T03:55:03;35.85;;;14.00;;
31676;SDS011;18385;51.572;6.578;2024-03-22T03:57:29;31.98;;;13.60;;
31676;SDS011;18385;51.572;6.578;2024-03-22T03:59:54;32.72;;;14.82;;
31676;SDS011;18385;51.572;6.578;2024-03-22T04:02:20;33.00;;;13.43;;
31676;SDS011;18385;51.572;6.578;2024-03-22T04:04:46;35.80;;;13.88;;
31676;SDS011;18385;51.572;6.578;2024-03-22T04:07:12;35.78;;;13.70;;
31676;SDS011;18385;51.572;6.578;2024-03-22T04:09:37;28.52;;;13.27;;
31676;SDS011;18385;51.572;6.578;2024-03-22T04:12:03;33.53;;;14.13;;
31676;SDS011;18385;51.572;6.578;2024-03-22T04:14:29;30.67;;;14.02;;
31676;SDS011;18385;51.572;6.578;2024-03-22T04:16:54;27.67;;;13.10;;
31676;SDS011;18385;51.572;6.578;2024-03-22T04:19:21;29.73;;;14.13;;
31676;SDS011;18385;51.572;6.578;2024-03-22T04:21:47;36.45;;;14.82;;
31676;SDS011;18385;51.572;6.578;2024-03-22T04:24:14;33.22;;;14.25;;
31676;SDS011;18385;51.572;6.578;2024-03-22T04:26:40;33.03;;;14.07;;
31676;SDS011;18385;51.572;6.578;2024-03-22T04:29:06;29.13;;;12.90;;
31676;SDS011;18385;51.572;6.578;2024-03-22T04:31:31;31.02;;;14.15;;
31676;SDS011;18385;51.572;6.578;2024-03-22T04:33:57;30.48;;;13.82;;
31676;SDS011;18385;51.572;6.578;2024-03-22T04:36:23;29.10;;;12.43;;
31676;SDS011;18385;51.572;6.578;2024-03-22T04:38:48;30.98;;;14.48;;
31676;SDS011;18385;51.572;6.578;2024-03-22T04:41:14;27.48;;;12.90;;
31676;SDS011;18385;51.572;6.578;2024-03-22T04:43:39;28.58;;;12.02;;
31676;SDS011;18385;51.572;6.578;2024-03-22T04:46:05;29.50;;;13.00;;
31676;SDS011;18385;51.572;6.578;2024-03-22T04:48:31;26.88;;;12.05;;
31676;SDS011;18385;51.572;6.578;2024-03-22T04:50:56;31.60;;;12.73;;
31676;SDS011;18385;51.572;6.578;2024-03-22T04:53:22;28.30;;;12.32;;
31676;SDS011;18385;51.572;6.578;2024-03-22T04:55:48;30.13;;;12.02;;
31676;SDS011;18385;51.572;6.578;2024-03-22T04:58:15;25.52;;;12.68;;
31676;SDS011;18385;51.572;6.578;2024-03-22T05:00:43;29.13;;;12.05;;
31676;SDS011;18385;51.572;6.578;2024-03-22T05:03:09;27.50;;;12.48;;
31676;SDS011;18385;51.572;6.578;2024-03-22T05:05:35;29.30;;;11.75;;
31676;SDS011;18385;51.572;6.578;2024-03-22T05:08:01;26.83;;;11.73;;
31676;SDS011;18385;51.572;6.578;2024-03-22T05:10:27;24.55;;;11.43;;
31676;SDS011;18385;51.572;6.578;2024-03-22T05:12:55;28.10;;;12.00;;
31676;SDS011;18385;51.572;6.578;2024-03-22T05:15:21;26.80;;;11.27;;
31676;SDS011;18385;51.572;6.578;2024-03-22T05:17:48;28.20;;;13.65;;
31676;SDS011;18385;51.572;6.578;2024-03-22T05:20:14;27.80;;;11.65;;
31676;SDS011;18385;51.572;6.578;2024-03-22T05:22:41;25.42;;;11.93;;
31676;SDS011;18385;51.572;6.578;2024-03-22T05:25:07;25.38;;;11.48;;
31676;SDS011;18385;51.572;6.578;2024-03-22T05:27:33;23.88;;;11.32;;
31676;SDS011;18385;51.572;6.578;2024-03-22T05:29:59;27.00;;;12.40;;
31676;SDS011;18385;51.572;6.578;2024-03-22T05:32:25;25.38;;;11.63;;
31676;SDS011;18385;51.572;6.578;2024-03-22T05:34:54;24.48;;;11.00;;
31676;SDS011;18385;51.572;6.578;2024-03-22T05:37:20;25.25;;;12.65;;
31676;SDS011;18385;51.572;6.578;2024-03-22T05:39:46;30.27;;;12.13;;
31676;SDS011;18385;51.572;6.578;2024-03-22T05:42:12;26.20;;;11.07;;
31676;SDS011;18385;51.572;6.578;2024-03-22T05:44:38;23.95;;;10.90;;
31676;SDS011;18385;51.572;6.578;2024-03-22T05:47:04;26.20;;;11.52;;
31676;SDS011;18385;51.572;6.578;2024-03-22T05:49:29;27.25;;;12.90;;
31676;SDS011;18385;51.572;6.578;2024-03-22T05:51:55;24.70;;;12.25;;
31676;SDS011;18385;51.572;6.578;2024-03-22T05:54:21;25.45;;;12.32;;
31676;SDS011;18385;51.572;6.578;2024-03-22T05:56:46;24.52;;;12.60;;
31676;SDS011;18385;51.572;6.578;2024-03-22T05:59:12;28.85;;;12.10;;
31676;SDS011;18385;51.572;6.578;2024-03-22T06:01:37;25.65;;;11.32;;
31676;SDS011;18385;51.572;6.578;2024-03-22T06:04:04;27.25;;;12.10;;
31676;SDS011;18385;51.572;6.578;2024-03-22T06:06:31;29.38;;;12.23;;
31676;SDS011;18385;51.572;6.578;2024-03-22T06:09:01;23.75;;;12.23;;
31676;SDS011;18385;51.572;6.578;2024-03-22T06:11:34;27.67;;;12.43;;
31676;SDS011;18385;51.572;6.578;2024-03-22T06:14:00;24.20;;;11.25;;
31676;SDS011;18385;51.572;6.578;2024-03-22T06:16:26;23.52;;;11.15;;
31676;SDS011;18385;51.572;6.578;2024-03-22T06:18:52;23.55;;;11.23;;
31676;SDS011;18385;51.572;6.578;2024-03-22T06:21:17;25.35;;;11.50;;
31676;SDS011;18385;51.572;6.578;2024-03-22T06:23:49;26.80;;;11.45;;
31676;SDS011;18385;51.572;6.578;2024-03-22T06:26:16;27.63;;;11.60;;
31676;SDS011;18385;51.572;6.578;2024-03-22T06:28:41;27.80;;;11.98;;
31676;SDS011;18385;51.572;6.578;2024-03-22T06:31:07;28.77;;;12.05;;
31676;SDS011;18385;51.572;6.578;2024-03-22T06:33:33;26.58;;;10.80;;
31676;SDS011;18385;51.572;6.578;2024-03-22T06:35:59;26.48;;;11.10;;
31676;SDS011;18385;51.572;6.578;2024-03-22T06:38:25;26.48;;;11.35;;
31676;SDS011;18385;51.572;6.578;2024-03-22T06:40:51;29.63;;;11.70;;
31676;SDS011;18385;51.572;6.578;2024-03-22T06:43:17;23.55;;;10.80;;
31676;SDS011;18385;51.572;6.578;2024-03-22T06:45:43;22.33;;;10.43;;
31676;SDS011;18385;51.572;6.578;2024-03-22T06:48:08;23.25;;;11.23;;
31676;SDS011;18385;51.572;6.578;2024-03-22T06:50:34;25.10;;;10.43;;
31676;SDS011;18385;51.572;6.578;2024-03-22T06:53:00;23.70;;;10.45;;
31676;SDS011;18385;51.572;6.578;2024-03-22T06:55:26;24.35;;;11.20;;
31676;SDS011;18385;51.572;6.578;2024-03-22T06:57:51;21.08;;;9.85;;
31676;SDS011;18385;51.572;6.578;2024-03-22T07:00:17;22.08;;;9.65;;
31676;SDS011;18385;51.572;6.578;2024-03-22T07:02:43;21.15;;;11.55;;
31676;SDS011;18385;51.572;6.578;2024-03-22T07:05:09;26.27;;;10.70;;
31676;SDS011;18385;51.572;6.578;2024-03-22T07:07:36;20.85;;;9.73;;
31676;SDS011;18385;51.572;6.578;2024-03-22T07:10:02;21.67;;;9.52;;
31676;SDS011;18385;51.572;6.578;2024-03-22T07:12:28;22.60;;;11.32;;
31676;SDS011;18385;51.572;6.578;2024-03-22T07:14:59;22.05;;;10.05;;
31676;SDS011;18385;51.572;6.578;2024-03-22T07:17:25;22.85;;;10.10;;
31676;SDS011;18385;51.572;6.578;2024-03-22T07:19:51;24.77;;;10.43;;
31676;SDS011;18385;51.572;6.578;2024-03-22T07:22:17;21.77;;;10.02;;
31676;SDS011;18385;51.572;6.578;2024-03-22T07:24:43;25.52;;;10.15;;
31676;SDS011;18385;51.572;6.578;2024-03-22T07:27:10;19.27;;;9.70;;
31676;SDS011;18385;51.572;6.578;2024-03-22T07:29:36;20.38;;;9.07;;
31676;SDS011;18385;51.572;6.578;2024-03-22T07:32:02;18.38;;;8.80;;
31676;SDS011;18385;51.572;6.578;2024-03-22T07:34:29;18.83;;;9.00;;
31676;SDS011;18385;51.572;6.578;2024-03-22T07:36:55;20.38;;;9.70;;
31676;SDS011;18385;51.572;6.578;2024-03-22T07:39:20;20.00;;;9.80;;
31676;SDS011;18385;51.572;6.578;2024-03-22T07:41:46;19.15;;;8.82;;
31676;SDS011;18385;51.572;6.578;2024-03-22T07:44:12;19.42;;;9.27;;
31676;SDS011;18385;51.572;6.578;2024-03-22T07:46:37;20.98;;;9.00;;
31676;SDS011;18385;51.572;6.578;2024-03-22T07:49:03;16.65;;;8.68;;
31676;SDS011;18385;51.572;6.578;2024-03-22T07:51:29;19.50;;;9.55;;
31676;SDS011;18385;51.572;6.578;2024-03-22T07:53:55;16.02;;;8.52;;
31676;SDS011;18385;51.572;6.578;2024-03-22T07:56:21;18.67;;;8.18;;
31676;SDS011;18385;51.572;6.578;2024-03-22T07:58:47;14.88;;;6.95;;
31676;SDS011;18385;51.572;6.578;2024-03-22T08:01:13;15.23;;;8.02;;
31676;SDS011;18385;51.572;6.578;2024-03-22T08:03:38;14.55;;;6.93;;
31676;SDS011;18385;51.572;6.578;2024-03-22T08:06:04;16.63;;;8.82;;
31676;SDS011;18385;51.572;6.578;2024-03-22T08:08:30;17.38;;;6.40;;
31676;SDS011;18385;51.572;6.578;2024-03-22T08:10:56;15.98;;;7.43;;
31676;SDS011;18385;51.572;6.578;2024-03-22T08:13:21;16.60;;;8.02;;
31676;SDS011;18385;51.572;6.578;2024-03-22T08:15:47;16.75;;;6.72;;
31676;SDS011;18385;51.572;6.578;2024-03-22T08:18:13;15.98;;;7.55;;
31676;SDS011;18385;51.572;6.578;2024-03-22T08:20:38;16.95;;;7.38;;
31676;SDS011;18385;51.572;6.578;2024-03-22T08:23:07;13.38;;;6.68;;
31676;SDS011;18385;51.572;6.578;2024-03-22T08:25:32;15.13;;;7.30;;
31676;SDS011;18385;51.572;6.578;2024-03-22T08:27:58;14.45;;;8.32;;
31676;SDS011;18385;51.572;6.578;2024-03-22T08:30:24;15.50;;;7.00;;
31676;SDS011;18385;51.572;6.578;2024-03-22T08:32:50;15.00;;;7.15;;
31676;SDS011;18385;51.572;6.578;2024-03-22T08:35:17;14.57;;;7.75;;
31676;SDS011;18385;51.572;6.578;2024-03-22T08:37:42;17.23;;;6.97;;
31676;SDS011;18385;51.572;6.578;2024-03-22T08:40:08;16.90;;;7.25;;
31676;SDS011;18385;51.572;6.578;2024-03-22T08:42:35;15.13;;;6.85;;
31676;SDS011;18385;51.572;6.578;2024-03-22T08:45:01;13.20;;;6.45;;
31676;SDS011;18385;51.572;6.578;2024-03-22T08:47:29;13.20;;;6.43;;
31676;SDS011;18385;51.572;6.578;2024-03-22T08:49:55;14.00;;;6.03;;
31676;SDS011;18385;51.572;6.578;2024-03-22T08:52:22;15.52;;;6.40;;
31676;SDS011;18385;51.572;6.578;2024-03-22T08:54:49;16.00;;;6.43;;
31676;SDS011;18385;51.572;6.578;2024-03-22T08:57:18;14.27;;;6.60;;
31676;SDS011;18385;51.572;6.578;2024-03-22T08:59:44;14.38;;;6.43;;
31676;SDS011;18385;51.572;6.578;2024-03-22T09:02:10;13.05;;;6.43;;
31676;SDS011;18385;51.572;6.578;2024-03-22T09:04:36;13.60;;;6.25;;
31676;SDS011;18385;51.572;6.578;2024-03-22T09:07:02;14.68;;;7.45;;
31676;SDS011;18385;51.572;6.578;2024-03-22T09:09:28;11.20;;;5.28;;
31676;SDS011;18385;51.572;6.578;2024-03-22T09:11:54;12.43;;;5.95;;
31676;SDS011;18385;51.572;6.578;2024-03-22T09:14:19;13.68;;;5.80;;
31676;SDS011;18385;51.572;6.578;2024-03-22T09:16:45;12.93;;;5.93;;
31676;SDS011;18385;51.572;6.578;2024-03-22T09:19:11;12.15;;;5.45;;
31676;SDS011;18385;51.572;6.578;2024-03-22T09:21:36;11.93;;;5.88;;
31676;SDS011;18385;51.572;6.578;2024-03-22T09:24:02;12.63;;;6.00;;
31676;SDS011;18385;51.572;6.578;2024-03-22T09:26:32;10.87;;;5.30;;
31676;SDS011;18385;51.572;6.578;2024-03-22T09:28:58;12.68;;;6.20;;
31676;SDS011;18385;51.572;6.578;2024-03-22T09:31:23;11.52;;;6.15;;
31676;SDS011;18385;51.572;6.578;2024-03-22T09:33:49;10.45;;;6.05;;
31676;SDS011;18385;51.572;6.578;2024-03-22T09:36:15;14.38;;;5.78;;
31676;SDS011;18385;51.572;6.578;2024-03-22T09:38:41;14.02;;;5.53;;
31676;SDS011;18385;51.572;6.578;2024-03-22T09:41:07;20.77;;;6.57;;
31676;SDS011;18385;51.572;6.578;2024-03-22T09:43:32;12.05;;;6.25;;
31676;SDS011;18385;51.572;6.578;2024-03-22T09:46:00;11.00;;;5.75;;
31676;SDS011;18385;51.572;6.578;2024-03-22T09:48:26;11.13;;;5.80;;
31676;SDS011;18385;51.572;6.578;2024-03-22T09:50:54;12.82;;;6.10;;
31676;SDS011;18385;51.572;6.578;2024-03-22T09:53:20;12.63;;;6.38;;
31676;SDS011;18385;51.572;6.578;2024-03-22T09:55:48;15.05;;;7.22;;
31676;SDS011;18385;51.572;6.578;2024-03-22T09:58:15;14.82;;;7.25;;
31676;SDS011;18385;51.572;6.578;2024-03-22T10:00:42;11.95;;;5.85;;
31676;SDS011;18385;51.572;6.578;2024-03-22T10:03:07;11.95;;;6.95;;
31676;SDS011;18385;51.572;6.578;2024-03-22T10:05:35;14.25;;;6.25;;
31676;SDS011;18385;51.572;6.578;2024-03-22T10:08:00;13.80;;;6.22;;
31676;SDS011;18385;51.572;6.578;2024-03-22T10:10:26;13.77;;;5.70;;
31676;SDS011;18385;51.572;6.578;2024-03-22T10:12:52;12.45;;;6.68;;
31676;SDS011;18385;51.572;6.578;2024-03-22T10:15:18;11.05;;;6.78;;
31676;SDS011;18385;51.572;6.578;2024-03-22T10:17:44;13.30;;;6.10;;
31676;SDS011;18385;51.572;6.578;2024-03-22T10:20:12;9.98;;;6.03;;
31676;SDS011;18385;51.572;6.578;2024-03-22T10:22:48;12.50;;;5.55;;
31676;SDS011;18385;51.572;6.578;2024-03-22T10:25:20;11.50;;;6.20;;
31676;SDS011;18385;51.572;6.578;2024-03-22T10:27:46;9.93;;;6.25;;
31676;SDS011;18385;51.572;6.578;2024-03-22T10:30:13;11.65;;;6.13;;
31676;SDS011;18385;51.572;6.578;2024-03-22T10:32:42;12.65;;;6.28;;
31676;SDS011;18385;51.572;6.578;2024-03-22T10:35:08;9.95;;;5.35;;
31676;SDS011;18385;51.572;6.578;2024-03-22T10:37:39;10.82;;;5.65;;
31676;SDS011;18385;51.572;6.578;2024-03-22T10:40:06;9.00;;;5.68;;
31676;SDS011;18385;51.572;6.578;2024-03-22T10:42:35;9.80;;;5.30;;
31676;SDS011;18385;51.572;6.578;2024-03-22T10:45:03;9.05;;;5.30;;
31676;SDS011;18385;51.572;6.578;2024-03-22T10:47:30;11.50;;;6.00;;
31676;SDS011;18385;51.572;6.578;2024-03-22T10:50:03;10.77;;;4.97;;
31676;SDS011;18385;51.572;6.578;2024-03-22T10:55:24;8.23;;;4.85;;
31676;SDS011;18385;51.572;6.578;2024-03-22T10:57:56;10.05;;;5.25;;
31676;SDS011;18385;51.572;6.578;2024-03-22T11:00:33;13.02;;;5.68;;
31676;SDS011;18385;51.572;6.578;2024-03-22T11:03:03;11.65;;;5.72;;
31676;SDS011;18385;51.572;6.578;2024-03-22T11:05:29;8.32;;;4.68;;
31676;SDS011;18385;51.572;6.578;2024-03-22T11:08:22;10.30;;;5.63;;
31676;SDS011;18385;51.572;6.578;2024-03-22T11:10:51;9.10;;;5.40;;
31676;SDS011;18385;51.572;6.578;2024-03-22T11:13:17;9.27;;;5.22;;
31676;SDS011;18385;51.572;6.578;2024-03-22T11:15:43;11.07;;;5.55;;
31676;SDS011;18385;51.572;6.578;2024-03-22T11:18:11;9.87;;;5.43;;
31676;SDS011;18385;51.572;6.578;2024-03-22T11:20:37;9.75;;;4.70;;
31676;SDS011;18385;51.572;6.578;2024-03-22T11:23:03;11.77;;;5.78;;
31676;SDS011;18385;51.572;6.578;2024-03-22T11:25:33;10.57;;;5.05;;
31676;SDS011;18385;51.572;6.578;2024-03-22T11:28:00;8.48;;;4.65;;
31676;SDS011;18385;51.572;6.578;2024-03-22T11:30:31;11.02;;;5.90;;
31676;SDS011;18385;51.572;6.578;2024-03-22T11:33:00;10.32;;;5.57;;
31676;SDS011;18385;51.572;6.578;2024-03-22T11:35:26;11.20;;;5.07;;
31676;SDS011;18385;51.572;6.578;2024-03-22T11:37:52;8.43;;;4.72;;
31676;SDS011;18385;51.572;6.578;2024-03-22T11:40:18;9.50;;;4.93;;
31676;SDS011;18385;51.572;6.578;2024-03-22T11:42:46;8.15;;;4.43;;
31676;SDS011;18385;51.572;6.578;2024-03-22T11:45:14;8.75;;;4.90;;
31676;SDS011;18385;51.572;6.578;2024-03-22T11:47:43;9.68;;;5.93;;
31676;SDS011;18385;51.572;6.578;2024-03-22T11:50:11;11.60;;;5.45;;
31676;SDS011;18385;51.572;6.578;2024-03-22T11:52:40;10.48;;;5.93;;
31676;SDS011;18385;51.572;6.578;2024-03-22T11:55:06;10.43;;;6.10;;
31676;SDS011;18385;51.572;6.578;2024-03-22T11:57:32;10.10;;;5.88;;
31676;SDS011;18385;51.572;6.578;2024-03-22T12:00:01;8.40;;;4.70;;
31676;SDS011;18385;51.572;6.578;2024-03-22T12:02:37;9.73;;;4.90;;
31676;SDS011;18385;51.572;6.578;2024-03-22T12:05:03;11.07;;;5.55;;
31676;SDS011;18385;51.572;6.578;2024-03-22T12:07:29;11.68;;;6.25;;
31676;SDS011;18385;51.572;6.578;2024-03-22T12:09:55;12.52;;;5.82;;
31676;SDS011;18385;51.572;6.578;2024-03-22T12:12:21;12.88;;;6.45;;
31676;SDS011;18385;51.572;6.578;2024-03-22T12:14:50;10.57;;;5.78;;
31676;SDS011;18385;51.572;6.578;2024-03-22T12:17:16;10.27;;;5.80;;
31676;SDS011;18385;51.572;6.578;2024-03-22T12:19:42;13.02;;;5.47;;
31676;SDS011;18385;51.572;6.578;2024-03-22T12:22:07;14.07;;;6.30;;
31676;SDS011;18385;51.572;6.578;2024-03-22T12:24:33;13.27;;;5.65;;
31676;SDS011;18385;51.572;6.578;2024-03-22T12:26:59;10.13;;;4.88;;
31676;SDS011;18385;51.572;6.578;2024-03-22T12:29:25;9.85;;;6.63;;
31676;SDS011;18385;51.572;6.578;2024-03-22T12:31:50;11.77;;;6.70;;
31676;SDS011;18385;51.572;6.578;2024-03-22T12:34:16;11.98;;;6.07;;
31676;SDS011;18385;51.572;6.578;2024-03-22T12:36:42;12.35;;;6.88;;
31676;SDS011;18385;51.572;6.578;2024-03-22T12:39:08;10.13;;;6.25;;
31676;SDS011;18385;51.572;6.578;2024-03-22T12:41:34;11.02;;;6.05;;
31676;SDS011;18385;51.572;6.578;2024-03-22T12:44:00;8.60;;;5.20;;
31676;SDS011;18385;51.572;6.578;2024-03-22T12:46:26;13.63;;;6.80;;
31676;SDS011;18385;51.572;6.578;2024-03-22T12:48:55;10.38;;;5.80;;
31676;SDS011;18385;51.572;6.578;2024-03-22T12:51:21;8.93;;;6.32;;
31676;SDS011;18385;51.572;6.578;2024-03-22T12:53:47;11.20;;;6.35;;
31676;SDS011;18385;51.572;6.578;2024-03-22T12:56:12;11.05;;;5.50;;
31676;SDS011;18385;51.572;6.578;2024-03-22T12:58:38;12.93;;;7.18;;
31676;SDS011;18385;51.572;6.578;2024-03-22T13:01:04;10.20;;;5.90;;
31676;SDS011;18385;51.572;6.578;2024-03-22T13:03:33;9.68;;;6.60;;
31676;SDS011;18385;51.572;6.578;2024-03-22T13:05:59;13.07;;;6.82;;
31676;SDS011;18385;51.572;6.578;2024-03-22T13:08:24;11.93;;;6.53;;
31676;SDS011;18385;51.572;6.578;2024-03-22T13:10:50;11.27;;;6.45;;
31676;SDS011;18385;51.572;6.578;2024-03-22T13:13:17;11.68;;;6.32;;
31676;SDS011;18385;51.572;6.578;2024-03-22T13:15:43;10.88;;;6.25;;
31676;SDS011;18385;51.572;6.578;2024-03-22T13:18:09;11.45;;;5.97;;
31676;SDS011;18385;51.572;6.578;2024-03-22T13:20:35;11.75;;;6.13;;
31676;SDS011;18385;51.572;6.578;2024-03-22T13:23:01;13.85;;;6.25;;
31676;SDS011;18385;51.572;6.578;2024-03-22T13:25:27;13.68;;;6.50;;
31676;SDS011;18385;51.572;6.578;2024-03-22T13:27:52;16.13;;;6.55;;
31676;SDS011;18385;51.572;6.578;2024-03-22T13:30:19;13.93;;;7.38;;
31676;SDS011;18385;51.572;6.578;2024-03-22T13:32:44;11.10;;;6.65;;
31676;SDS011;18385;51.572;6.578;2024-03-22T13:35:10;15.68;;;7.70;;
31676;SDS011;18385;51.572;6.578;2024-03-22T13:37:36;15.05;;;7.93;;
31676;SDS011;18385;51.572;6.578;2024-03-22T13:40:02;15.85;;;8.45;;
31676;SDS011;18385;51.572;6.578;2024-03-22T13:42:28;11.73;;;6.80;;
31676;SDS011;18385;51.572;6.578;2024-03-22T13:44:53;14.25;;;7.38;;
31676;SDS011;18385;51.572;6.578;2024-03-22T13:47:21;12.73;;;7.03;;
31676;SDS011;18385;51.572;6.578;2024-03-22T13:49:47;14.45;;;7.68;;
31676;SDS011;18385;51.572;6.578;2024-03-22T13:52:13;16.83;;;7.80;;
31676;SDS011;18385;51.572;6.578;2024-03-22T13:54:39;13.73;;;7.75;;
31676;SDS011;18385;51.572;6.578;2024-03-22T13:57:05;13.73;;;7.50;;
31676;SDS011;18385;51.572;6.578;2024-03-22T13:59:31;11.48;;;6.75;;
31676;SDS011;18385;51.572;6.578;2024-03-22T14:01:57;12.68;;;7.22;;
31676;SDS011;18385;51.572;6.578;2024-03-22T14:04:23;16.73;;;7.70;;
31676;SDS011;18385;51.572;6.578;2024-03-22T14:06:51;14.73;;;8.10;;
31676;SDS011;18385;51.572;6.578;2024-03-22T14:09:16;16.70;;;8.60;;
31676;SDS011;18385;51.572;6.578;2024-03-22T14:11:42;14.95;;;8.30;;
31676;SDS011;18385;51.572;6.578;2024-03-22T14:14:11;13.10;;;6.80;;
31676;SDS011;18385;51.572;6.578;2024-03-22T14:16:40;15.07;;;8.32;;
31676;SDS011;18385;51.572;6.578;2024-03-22T14:19:06;19.60;;;9.00;;
31676;SDS011;18385;51.572;6.578;2024-03-22T14:21:32;18.73;;;9.70;;
31676;SDS011;18385;51.572;6.578;2024-03-22T14:23:58;16.90;;;9.35;;
31676;SDS011;18385;51.572;6.578;2024-03-22T14:26:23;21.88;;;11.23;;